createdAt,value
2023-04-18T00:00:24.725Z,7.20
2023-04-18T00:02:53.949Z,7.20
2023-04-18T00:05:21.823Z,7.20
2023-04-18T00:07:48.685Z,7.10
2023-04-18T00:10:16.806Z,7.20
2023-04-18T00:12:43.563Z,7.20
2023-04-18T00:15:11.647Z,7.20
2023-04-18T00:17:38.558Z,7.20
2023-04-18T00:20:09.167Z,7.20
2023-04-18T00:22:36.384Z,7.20
2023-04-18T00:25:03.095Z,7.20
2023-04-18T00:27:29.736Z,7.20
2023-04-18T00:29:56.380Z,7.20
2023-04-18T00:32:23.056Z,7.20
2023-04-18T00:34:49.948Z,7.20
2023-04-18T00:37:19.265Z,7.20
2023-04-18T00:39:45.914Z,7.20
2023-04-18T00:42:12.591Z,7.20
2023-04-18T00:44:39.241Z,7.20
2023-04-18T00:47:06.354Z,7.20
2023-04-18T00:49:33.307Z,7.20
2023-04-18T00:52:00.241Z,7.10
2023-04-18T00:54:27.355Z,7.10
2023-04-18T00:56:54.256Z,7.10
2023-04-18T00:59:22.140Z,7.10
2023-04-18T01:01:48.878Z,7.00
2023-04-18T01:04:15.968Z,7.00
2023-04-18T01:06:44.099Z,7.00
2023-04-18T01:09:11.102Z,7.10
2023-04-18T01:11:37.788Z,7.00
2023-04-18T01:14:06.855Z,7.00
2023-04-18T01:16:37.081Z,7.00
2023-04-18T01:19:04.933Z,7.00
2023-04-18T01:21:33.986Z,7.10
2023-04-18T01:24:09.124Z,7.10
2023-04-18T01:26:36.296Z,7.10
2023-04-18T01:29:05.675Z,7.10
2023-04-18T01:31:36.335Z,7.20
2023-04-18T01:34:03.888Z,7.10
2023-04-18T01:36:31.919Z,7.20
2023-04-18T01:38:59.722Z,7.10
2023-04-18T01:41:27.250Z,7.10
2023-04-18T01:43:53.915Z,7.10
2023-04-18T01:46:20.613Z,7.10
2023-04-18T01:48:47.280Z,7.00
2023-04-18T01:51:14.072Z,7.10
2023-04-18T01:53:41.801Z,7.00
2023-04-18T01:56:10.131Z,7.00
2023-04-18T01:58:37.272Z,7.00
2023-04-18T02:01:04.362Z,6.90
2023-04-18T02:03:31.215Z,6.90
2023-04-18T02:05:58.087Z,6.90
2023-04-18T02:08:24.836Z,6.90
2023-04-18T02:10:51.499Z,6.90
2023-04-18T02:13:18.169Z,7.00
2023-04-18T02:15:45.939Z,7.00
2023-04-18T02:18:15.715Z,7.00
2023-04-18T02:20:42.346Z,7.00
2023-04-18T02:23:09.050Z,7.00
2023-04-18T02:25:35.688Z,7.00
2023-04-18T02:28:02.398Z,7.00
2023-04-18T02:30:31.294Z,7.10
2023-04-18T02:32:58.054Z,7.10
2023-04-18T02:35:25.998Z,7.10
2023-04-18T02:37:52.810Z,7.10
2023-04-18T02:40:19.869Z,7.10
2023-04-18T02:42:46.759Z,7.10
2023-04-18T02:45:15.303Z,7.10
2023-04-18T02:47:53.670Z,7.10
2023-04-18T02:50:21.844Z,7.00
2023-04-18T02:52:48.643Z,7.00
2023-04-18T02:55:17.459Z,7.00
2023-04-18T02:57:45.372Z,7.00
2023-04-18T03:00:30.784Z,7.00
2023-04-18T03:03:16.939Z,7.10
2023-04-18T03:05:54.938Z,7.10
2023-04-18T03:08:21.930Z,7.10
2023-04-18T03:10:48.918Z,7.10
2023-04-18T03:13:17.811Z,7.10
2023-04-18T03:15:44.817Z,7.10
2023-04-18T03:18:12.744Z,7.10
2023-04-18T03:20:41.116Z,7.10
2023-04-18T03:23:08.360Z,7.10
2023-04-18T03:25:35.721Z,7.10
2023-04-18T03:28:03.399Z,7.10
2023-04-18T03:30:30.981Z,7.10
2023-04-18T03:32:59.521Z,7.10
2023-04-18T03:35:26.287Z,7.10
2023-04-18T03:37:52.972Z,7.20
2023-04-18T03:40:24.603Z,7.10
2023-04-18T03:42:54.181Z,7.10
2023-04-18T03:45:20.816Z,7.10
2023-04-18T03:47:47.866Z,7.20
2023-04-18T03:50:15.710Z,7.20
2023-04-18T03:52:44.528Z,7.20
2023-04-18T03:55:11.968Z,7.20
2023-04-18T03:57:39.822Z,7.20
2023-04-18T04:00:11.070Z,7.20
2023-04-18T04:02:50.010Z,7.10
2023-04-18T04:05:20.416Z,7.20
2023-04-18T04:07:47.714Z,7.10
2023-04-18T04:10:14.505Z,7.10
2023-04-18T04:12:41.269Z,7.10
2023-04-18T04:15:08.623Z,7.10
2023-04-18T04:17:38.892Z,7.10
2023-04-18T04:20:07.286Z,7.10
2023-04-18T04:22:35.032Z,7.10
2023-04-18T04:25:02.630Z,7.10
2023-04-18T04:27:36.746Z,7.10
2023-04-18T04:30:07.158Z,7.10
2023-04-18T04:32:35.471Z,7.10
2023-04-18T04:35:02.234Z,7.10
2023-04-18T04:37:29.446Z,7.10
2023-04-18T04:40:23.060Z,7.10
2023-04-18T04:42:54.612Z,7.10
2023-04-18T04:45:31.224Z,7.10
2023-04-18T04:47:58.024Z,7.10
2023-04-18T04:50:25.565Z,7.10
2023-04-18T04:52:52.252Z,7.10
2023-04-18T04:55:19.121Z,7.10
2023-04-18T04:57:47.623Z,7.10
2023-04-18T05:00:30.224Z,7.10
2023-04-18T05:02:59.925Z,7.10
2023-04-18T05:05:27.771Z,7.10
2023-04-18T05:07:54.778Z,7.10
2023-04-18T05:10:21.713Z,7.10
2023-04-18T05:12:48.378Z,7.20
2023-04-18T05:15:18.704Z,7.20
2023-04-18T05:17:45.431Z,7.30
2023-04-18T05:20:12.515Z,7.20
2023-04-18T05:22:39.136Z,7.30
2023-04-18T05:25:06.301Z,7.20
2023-04-18T05:27:32.938Z,7.30
2023-04-18T05:29:59.565Z,7.40
2023-04-18T05:32:26.285Z,7.40
2023-04-18T05:34:52.925Z,7.50
2023-04-18T05:37:19.652Z,7.50
2023-04-18T05:39:46.338Z,7.60
2023-04-18T05:42:13.069Z,7.60
2023-04-18T05:44:39.741Z,7.70
2023-04-18T05:47:06.746Z,7.80
2023-04-18T05:49:33.546Z,7.90
2023-04-18T05:52:00.231Z,8.10
2023-04-18T05:54:27.442Z,8.20
2023-04-18T05:56:55.236Z,8.30
2023-04-18T05:59:21.932Z,8.40
2023-04-18T06:01:49.491Z,8.50
2023-04-18T06:04:16.873Z,8.70
2023-04-18T06:06:44.088Z,8.80
2023-04-18T06:09:11.059Z,8.80
2023-04-18T06:11:37.735Z,8.80
2023-04-18T06:14:04.634Z,8.90
2023-04-18T06:16:31.330Z,9.00
2023-04-18T06:19:00.959Z,9.00
2023-04-18T06:21:28.075Z,9.30
2023-04-18T06:23:54.794Z,9.30
2023-04-18T06:26:21.544Z,9.40
2023-04-18T06:28:48.351Z,9.60
2023-04-18T06:31:15.039Z,9.70
2023-04-18T06:33:41.921Z,9.80
2023-04-18T06:36:09.221Z,9.70
2023-04-18T06:38:35.855Z,9.50
2023-04-18T06:41:02.500Z,9.40
2023-04-18T06:43:29.200Z,9.40
2023-04-18T06:45:56.698Z,9.30
2023-04-18T06:48:23.646Z,9.40
2023-04-18T06:50:50.538Z,9.50
2023-04-18T06:53:17.246Z,9.50
2023-04-18T06:55:44.086Z,9.70
2023-04-18T06:58:13.558Z,9.70
2023-04-18T07:00:40.298Z,9.80
2023-04-18T07:03:11.365Z,9.80
2023-04-18T07:05:39.166Z,9.80
2023-04-18T07:08:06.041Z,9.70
2023-04-18T07:10:32.762Z,9.60
2023-04-18T07:12:59.589Z,9.40
2023-04-18T07:15:26.332Z,9.30
2023-04-18T07:17:53.301Z,9.30
2023-04-18T07:20:20.110Z,9.30
2023-04-18T07:22:47.954Z,9.30
2023-04-18T07:25:14.799Z,9.30
2023-04-18T07:27:41.486Z,9.30
2023-04-18T07:30:08.794Z,9.40
2023-04-18T07:32:35.474Z,9.40
2023-04-18T07:35:03.340Z,9.40
2023-04-18T07:37:30.234Z,9.50
2023-04-18T07:39:56.910Z,9.60
2023-04-18T07:42:23.580Z,9.60
2023-04-18T07:44:50.362Z,9.60
2023-04-18T07:47:22.193Z,9.70
2023-04-18T07:49:49.207Z,9.80
2023-04-18T07:52:15.874Z,10.00
2023-04-18T07:54:42.620Z,10.20
2023-04-18T07:57:09.387Z,10.30
2023-04-18T07:59:36.377Z,10.60
2023-04-18T08:02:03.191Z,10.70
2023-04-18T08:04:30.614Z,10.90
2023-04-18T08:06:57.476Z,10.90
2023-04-18T08:09:24.612Z,10.80
2023-04-18T08:11:51.379Z,10.80
2023-04-18T08:14:18.017Z,10.90
2023-04-18T08:16:44.848Z,11.10
2023-04-18T08:19:11.688Z,11.40
2023-04-18T08:21:39.265Z,11.50
2023-04-18T08:24:06.240Z,11.60
2023-04-18T08:26:32.910Z,11.70
2023-04-18T08:28:59.587Z,11.90
2023-04-18T08:31:26.492Z,11.90
2023-04-18T08:33:53.340Z,12.00
2023-04-18T08:36:21.164Z,12.00
2023-04-18T08:38:47.813Z,12.00
2023-04-18T08:41:17.371Z,12.00
2023-04-18T08:43:48.852Z,11.90
2023-04-18T08:46:15.623Z,11.90
2023-04-18T08:48:42.381Z,12.10
2023-04-18T08:51:09.216Z,12.20
2023-04-18T08:53:36.048Z,12.30
2023-04-18T08:56:02.840Z,12.50
2023-04-18T08:58:33.705Z,12.60
2023-04-18T09:01:00.835Z,12.90
2023-04-18T09:03:42.451Z,13.10
2023-04-18T09:06:12.449Z,13.20
2023-04-18T09:08:43.692Z,13.20
2023-04-18T09:11:25.932Z,13.20
2023-04-18T09:18:10.356Z,12.90
2023-04-18T09:20:41.016Z,13.00
2023-04-18T09:23:14.521Z,13.00
2023-04-18T09:25:42.732Z,12.90
2023-04-18T09:28:27.951Z,12.80
2023-04-18T09:31:16.823Z,12.70
2023-04-18T09:33:56.760Z,12.50
2023-04-18T09:36:27.035Z,12.60
2023-04-18T09:38:56.687Z,12.60
2023-04-18T09:41:23.914Z,12.70
2023-04-18T09:43:52.038Z,12.50
2023-04-18T09:46:18.814Z,12.60
2023-04-18T09:48:45.493Z,12.50
2023-04-18T09:51:16.228Z,12.60
2023-04-18T09:53:44.901Z,12.70
2023-04-18T09:56:25.923Z,12.80
2023-04-18T09:58:59.100Z,13.00
2023-04-18T10:01:29.714Z,13.00
2023-04-18T10:04:00.985Z,13.30
2023-04-18T10:06:28.790Z,13.50
2023-04-18T10:08:56.017Z,13.60
2023-04-18T10:11:24.143Z,13.50
2023-04-18T10:13:55.693Z,13.60
2023-04-18T10:16:22.726Z,13.70
2023-04-18T10:18:51.027Z,13.60
2023-04-18T10:21:17.697Z,13.60
2023-04-18T10:23:45.856Z,13.60
2023-04-18T10:26:12.558Z,13.40
2023-04-18T10:28:59.003Z,13.00
2023-04-18T10:31:27.483Z,13.00
2023-04-18T10:34:04.662Z,13.10
2023-04-18T10:36:32.464Z,13.10
2023-04-18T10:39:20.153Z,13.10
2023-04-18T10:41:51.407Z,13.00
2023-04-18T10:44:19.944Z,12.90
2023-04-18T10:46:52.761Z,12.80
2023-04-18T10:49:22.893Z,12.70
2023-04-18T10:51:55.169Z,12.60
2023-04-18T10:54:54.212Z,12.70
2023-04-18T10:57:21.131Z,12.60
2023-04-18T10:59:52.241Z,12.60
2023-04-18T11:02:30.185Z,12.60
2023-04-18T11:05:02.822Z,12.70
2023-04-18T11:07:49.001Z,12.80
2023-04-18T11:10:21.187Z,12.90
2023-04-18T11:12:48.352Z,13.00
2023-04-18T11:15:23.281Z,13.00
2023-04-18T11:18:01.625Z,13.10
2023-04-18T11:20:29.545Z,13.20
2023-04-18T11:22:57.256Z,13.20
2023-04-18T11:25:27.190Z,13.20
2023-04-18T11:27:56.809Z,13.20
2023-04-18T11:30:23.568Z,13.30
2023-04-18T11:32:51.486Z,13.70
2023-04-18T11:35:18.482Z,13.90
2023-04-18T11:37:45.888Z,14.30
2023-04-18T11:40:14.024Z,14.70
2023-04-18T11:42:42.134Z,14.90
2023-04-18T11:45:17.901Z,15.00
2023-04-18T11:47:46.741Z,15.10
2023-04-18T11:50:13.886Z,15.00
2023-04-18T11:52:42.440Z,14.80
2023-04-18T11:55:18.372Z,14.70
2023-04-18T11:58:01.534Z,14.60
2023-04-18T12:00:32.912Z,14.50
2023-04-18T12:03:01.659Z,14.20
2023-04-18T12:05:34.343Z,14.20
2023-04-18T12:08:18.359Z,13.80
2023-04-18T12:10:50.375Z,13.70
2023-04-18T12:13:17.993Z,13.80
2023-04-18T12:15:46.493Z,13.70
2023-04-18T12:18:15.290Z,13.70
2023-04-18T12:20:50.082Z,13.90
2023-04-18T12:23:29.922Z,14.00
2023-04-18T12:26:04.177Z,14.00
2023-04-18T12:28:31.724Z,13.90
2023-04-18T12:30:59.033Z,13.80
2023-04-18T12:33:26.287Z,13.80
2023-04-18T12:35:53.507Z,13.70
2023-04-18T12:38:22.301Z,13.80
2023-04-18T12:40:49.800Z,13.60
2023-04-18T12:43:17.040Z,14.00
2023-04-18T12:45:43.807Z,14.40
2023-04-18T12:48:10.593Z,14.50
2023-04-18T12:50:37.493Z,14.30
2023-04-18T12:53:05.791Z,14.30
2023-04-18T12:55:32.920Z,14.50
2023-04-18T12:57:59.809Z,15.00
2023-04-18T13:00:31.460Z,15.20
2023-04-18T13:02:58.915Z,15.10
2023-04-18T13:05:29.924Z,14.80
2023-04-18T13:08:15.397Z,14.90
2023-04-18T13:10:44.634Z,14.90
2023-04-18T13:13:11.269Z,14.60
2023-04-18T13:15:38.273Z,14.30
2023-04-18T13:18:06.652Z,14.20
2023-04-18T13:20:34.107Z,14.10
2023-04-18T13:23:02.052Z,14.00
2023-04-18T13:25:28.715Z,14.10
2023-04-18T13:27:56.262Z,14.10
2023-04-18T13:30:22.959Z,13.90
2023-04-18T13:32:49.659Z,13.60
2023-04-18T13:35:16.310Z,13.50
2023-04-18T13:37:43.210Z,13.20
2023-04-18T13:40:10.265Z,13.00
2023-04-18T13:42:38.338Z,13.00
2023-04-18T13:45:05.505Z,12.90
2023-04-18T13:47:32.443Z,12.80
2023-04-18T13:49:59.294Z,12.90
2023-04-18T13:52:26.224Z,13.00
2023-04-18T13:54:53.169Z,13.00
2023-04-18T13:57:20.012Z,13.10
2023-04-18T13:59:46.853Z,13.20
2023-04-18T14:02:13.936Z,13.10
2023-04-18T14:04:40.935Z,13.10
2023-04-18T14:07:08.093Z,13.20
2023-04-18T14:09:34.975Z,13.30
2023-04-18T14:12:02.061Z,13.50
2023-04-18T14:14:29.060Z,13.60
2023-04-18T14:16:55.803Z,13.80
2023-04-18T14:19:22.733Z,13.80
2023-04-18T14:21:49.444Z,13.80
2023-04-18T14:24:16.128Z,13.80
2023-04-18T14:26:42.790Z,13.90
2023-04-18T14:29:09.486Z,14.00
2023-04-18T14:31:36.320Z,13.90
2023-04-18T14:34:03.103Z,13.80
2023-04-18T14:36:29.755Z,13.70
2023-04-18T14:38:56.489Z,13.60
2023-04-18T14:41:23.815Z,13.50
2023-04-18T14:43:50.498Z,13.30
2023-04-18T14:46:17.263Z,13.10
2023-04-18T14:48:47.443Z,12.90
2023-04-18T14:51:16.254Z,12.80
2023-04-18T14:53:43.498Z,12.60
2023-04-18T14:56:10.132Z,12.50
2023-04-18T14:58:36.811Z,12.50
2023-04-18T15:01:04.356Z,12.40
2023-04-18T15:03:31.459Z,12.40
2023-04-18T15:05:58.244Z,12.30
2023-04-18T15:08:25.159Z,12.30
2023-04-18T15:10:51.816Z,12.30
2023-04-18T15:13:19.556Z,12.30
2023-04-18T15:15:53.209Z,12.30
2023-04-18T15:18:20.360Z,12.30
2023-04-18T15:20:47.445Z,12.30
2023-04-18T15:23:15.124Z,12.40
2023-04-18T15:25:43.625Z,12.60
2023-04-18T15:28:10.336Z,12.40
2023-04-18T15:30:37.014Z,12.50
2023-04-18T15:33:03.826Z,12.50
2023-04-18T15:35:30.617Z,12.60
2023-04-18T15:37:57.557Z,12.60
2023-04-18T15:40:24.578Z,12.60
2023-04-18T15:42:53.529Z,12.50
2023-04-18T15:45:21.325Z,12.50
2023-04-18T15:47:48.384Z,12.60
2023-04-18T15:50:16.258Z,12.50
2023-04-18T15:52:43.743Z,12.40
2023-04-18T15:55:10.717Z,12.30
2023-04-18T15:57:37.402Z,12.20
2023-04-18T16:00:10.206Z,12.20
2023-04-18T16:02:37.169Z,12.10
2023-04-18T16:05:04.779Z,12.10
2023-04-18T16:07:31.611Z,12.10
2023-04-18T16:09:58.246Z,12.20
2023-04-18T16:12:24.895Z,12.20
2023-04-18T16:14:51.538Z,12.20
2023-04-18T16:17:18.169Z,12.10
2023-04-18T16:19:44.837Z,12.00
2023-04-18T16:22:12.298Z,11.80
2023-04-18T16:24:40.884Z,11.70
2023-04-18T16:27:08.606Z,11.60
2023-04-18T16:29:35.366Z,11.60
2023-04-18T16:32:02.147Z,11.50
2023-04-18T16:34:28.815Z,11.50
2023-04-18T16:36:55.758Z,11.40
2023-04-18T16:39:22.554Z,11.40
2023-04-18T16:41:49.227Z,11.40
2023-04-18T16:44:16.143Z,11.40
2023-04-18T16:46:43.099Z,11.30
2023-04-18T16:49:10.214Z,11.30
2023-04-18T16:51:38.155Z,11.30
2023-04-18T16:54:06.016Z,11.30
2023-04-18T16:56:33.778Z,11.20
2023-04-18T16:59:00.641Z,11.20
2023-04-18T17:01:27.427Z,11.10
2023-04-18T17:03:54.306Z,11.20
2023-04-18T17:06:22.697Z,11.10
2023-04-18T17:08:50.092Z,11.10
2023-04-18T17:11:16.733Z,11.00
2023-04-18T17:13:43.878Z,11.00
2023-04-18T17:16:11.066Z,10.90
2023-04-18T17:18:37.895Z,11.10
2023-04-18T17:21:04.595Z,10.90
2023-04-18T17:23:32.957Z,10.90
2023-04-18T17:25:59.905Z,10.80
2023-04-18T17:28:26.973Z,10.70
2023-04-18T17:30:53.608Z,10.70
2023-04-18T17:33:20.968Z,10.70
2023-04-18T17:35:48.167Z,10.60
2023-04-18T17:38:15.013Z,10.50
2023-04-18T17:40:41.929Z,10.40
2023-04-18T17:43:08.708Z,10.40
2023-04-18T17:45:35.448Z,10.30
2023-04-18T17:48:03.081Z,10.30
2023-04-18T17:50:30.074Z,10.40
2023-04-18T17:52:57.431Z,10.20
2023-04-18T17:55:26.043Z,10.20
2023-04-18T17:57:52.681Z,10.10
2023-04-18T18:00:19.507Z,10.10
2023-04-18T18:02:46.710Z,10.00
2023-04-18T18:05:13.570Z,9.90
2023-04-18T18:07:43.061Z,9.80
2023-04-18T18:10:10.724Z,9.80
2023-04-18T18:12:38.124Z,9.80
2023-04-18T18:15:05.085Z,9.70
2023-04-18T18:17:31.794Z,9.60
2023-04-18T18:19:58.447Z,9.60
2023-04-18T18:22:26.123Z,9.50
2023-04-18T18:24:52.934Z,9.50
2023-04-18T18:27:20.264Z,9.50
2023-04-18T18:29:48.011Z,9.50
2023-04-18T18:32:14.742Z,9.50
2023-04-18T18:34:41.385Z,9.50
2023-04-18T18:37:08.272Z,9.60
2023-04-18T18:39:36.538Z,9.60
2023-04-18T18:42:03.288Z,9.60
2023-04-18T18:44:30.476Z,9.60
2023-04-18T18:46:58.691Z,9.50
2023-04-18T18:49:26.503Z,9.50
2023-04-18T18:51:53.404Z,9.50
2023-04-18T18:54:20.248Z,9.50
2023-04-18T18:56:47.009Z,9.60
2023-04-18T18:59:13.972Z,9.60
2023-04-18T19:01:41.083Z,9.70
2023-04-18T19:04:07.989Z,9.70
2023-04-18T19:06:35.198Z,9.70
2023-04-18T19:09:01.870Z,9.70
2023-04-18T19:11:29.182Z,9.70
2023-04-18T19:13:55.836Z,9.70
2023-04-18T19:16:22.829Z,9.70
2023-04-18T19:18:50.492Z,9.70
2023-04-18T19:21:17.402Z,9.60
2023-04-18T19:23:44.091Z,9.60
2023-04-18T19:26:10.740Z,9.60
2023-04-18T19:28:37.535Z,9.60
2023-04-18T19:31:04.436Z,9.60
2023-04-18T19:33:31.255Z,9.60
2023-04-18T19:35:58.655Z,9.60
2023-04-18T19:38:25.628Z,9.60
2023-04-18T19:40:52.318Z,9.50
2023-04-18T19:43:19.086Z,9.50
2023-04-18T19:45:45.881Z,9.50
2023-04-18T19:48:12.727Z,9.50
2023-04-18T19:50:40.465Z,9.50
2023-04-18T19:53:07.152Z,9.50
2023-04-18T19:55:34.023Z,9.50
2023-04-18T19:58:00.814Z,9.40
2023-04-18T20:00:28.363Z,9.40
2023-04-18T20:02:55.489Z,9.30
2023-04-18T20:05:22.673Z,9.30
2023-04-18T20:07:50.150Z,9.30
2023-04-18T20:10:21.668Z,9.20
2023-04-18T20:12:50.092Z,9.20
2023-04-18T20:15:17.132Z,9.20
2023-04-18T20:17:43.869Z,9.20
2023-04-18T20:20:11.358Z,9.10
2023-04-18T20:22:40.263Z,9.10
2023-04-18T20:25:07.202Z,9.10
2023-04-18T20:27:33.930Z,9.10
2023-04-18T20:30:00.705Z,9.10
2023-04-18T20:32:27.984Z,9.10
2023-04-18T20:34:54.786Z,9.10
2023-04-18T20:37:21.498Z,9.10
2023-04-18T20:39:48.142Z,9.10
2023-04-18T20:42:14.829Z,9.10
2023-04-18T20:44:46.720Z,9.10
2023-04-18T20:47:15.509Z,9.10
2023-04-18T20:49:42.679Z,9.10
2023-04-18T20:52:09.625Z,9.10
2023-04-18T20:54:36.267Z,9.10
2023-04-18T20:57:03.102Z,9.10
2023-04-18T20:59:29.876Z,9.10
2023-04-18T21:01:56.625Z,9.10
2023-04-18T21:04:23.779Z,9.10
2023-04-18T21:06:51.043Z,9.10
2023-04-18T21:09:17.742Z,9.10
2023-04-18T21:11:44.420Z,9.00
2023-04-18T21:14:11.324Z,9.10
2023-04-18T21:16:39.670Z,9.10
2023-04-18T21:19:06.864Z,9.10
2023-04-18T21:21:34.323Z,9.10
2023-04-18T21:24:01.876Z,9.10
2023-04-18T21:26:28.701Z,9.10
2023-04-18T21:29:04.655Z,9.10
2023-04-18T21:31:32.941Z,9.10
2023-04-18T21:34:01.583Z,9.10
2023-04-18T21:36:31.008Z,9.00
2023-04-18T21:39:00.707Z,9.10
2023-04-18T21:41:27.810Z,9.10
2023-04-18T21:43:54.523Z,9.10
2023-04-18T21:46:21.458Z,9.10
2023-04-18T21:48:48.448Z,9.20
2023-04-18T21:51:16.464Z,9.10
2023-04-18T21:53:43.208Z,9.20
2023-04-18T21:56:10.763Z,9.20
2023-04-18T21:58:37.448Z,9.20
2023-04-18T22:01:04.289Z,9.20
2023-04-18T22:03:31.634Z,9.20
2023-04-18T22:05:58.808Z,9.20
2023-04-18T22:08:26.185Z,9.20
2023-04-18T22:10:54.918Z,9.10
2023-04-18T22:13:32.833Z,9.10
2023-04-18T22:16:04.238Z,9.10
2023-04-18T22:18:33.825Z,9.10
2023-04-18T22:21:02.273Z,9.10
2023-04-18T22:23:30.253Z,9.10
2023-04-18T22:25:56.990Z,9.10
2023-04-18T22:28:23.703Z,9.10
2023-04-18T22:30:51.519Z,9.10
2023-04-18T22:33:18.316Z,9.00
2023-04-18T22:35:46.346Z,9.00
2023-04-18T22:38:13.025Z,9.00
2023-04-18T22:40:39.739Z,9.00
2023-04-18T22:43:06.384Z,9.00
2023-04-18T22:45:34.556Z,9.00
2023-04-18T22:48:01.360Z,9.00
2023-04-18T22:50:28.079Z,8.90
2023-04-18T22:52:54.729Z,8.90
2023-04-18T22:55:21.509Z,8.90
2023-04-18T22:57:48.179Z,8.80
2023-04-18T23:00:15.336Z,8.80
2023-04-18T23:02:42.083Z,8.80
2023-04-18T23:05:10.693Z,8.80
2023-04-18T23:07:37.432Z,8.80
2023-04-18T23:10:06.315Z,8.70
2023-04-18T23:12:33.020Z,8.70
2023-04-18T23:14:59.693Z,8.70
2023-04-18T23:17:26.352Z,8.70
2023-04-18T23:19:53.031Z,8.70
2023-04-18T23:22:20.364Z,8.60
2023-04-18T23:24:47.095Z,8.60
2023-04-18T23:27:13.719Z,8.60
2023-04-18T23:29:40.394Z,8.60
2023-04-18T23:32:07.240Z,8.60
2023-04-18T23:34:34.190Z,8.60
2023-04-18T23:37:00.855Z,8.70
2023-04-18T23:39:27.588Z,8.60
2023-04-18T23:41:54.257Z,8.60
2023-04-18T23:44:21.326Z,8.60
2023-04-18T23:46:48.465Z,8.60
2023-04-18T23:49:16.114Z,8.60
2023-04-18T23:51:42.825Z,8.60
2023-04-18T23:54:09.690Z,8.60
2023-04-18T23:56:36.358Z,8.60
2023-04-18T23:59:03.010Z,8.60
